KCLW/CLW METAR and TAF weather

Enter ICAO airport designator
Station Type Date Time Source
KCLW METAR 2021/03/01 10:15 UTC NOAA

KCLW 011015Z AUTO 00000KT 10SM 21/20 A3006 RMK AO2


Station Type Date Time Source
KCLW Decoded METAR 2021/03/01 10:15 UTC NOAA

Station name not available
Mar 01, 2021 - 05:15 AM EST / 2021.03.01 1015 UTC
Wind: Calm:0
Visibility: 10 mile(s):0
Temperature: 69 F (21 C)
Dew Point: 68 F (20 C)
Relative Humidity: 94%
Pressure (altimeter): 30.06 in. Hg (1017 hPa)
ob: KCLW 011015Z AUTO 00000KT 10SM 21/20 A3006 RMK AO2
cycle: 10

Station Type Date Time Source
KCLW TAF UTC NOAA

Error!

Example: see airport list